createdAt,value
2023-04-08T00:00:10.509Z,99356.91
2023-04-08T00:02:37.441Z,99366.34
2023-04-08T00:05:04.432Z,99366.34
2023-04-08T00:07:31.314Z,99361.09
2023-04-08T00:09:58.031Z,99355.84
2023-04-08T00:12:24.747Z,99358.38
2023-04-08T00:14:51.422Z,99359.56
2023-04-08T00:17:18.105Z,99349.56
2023-04-08T00:19:45.128Z,99354.13
2023-04-08T00:22:11.910Z,99351.44
2023-04-08T00:24:38.611Z,99356.09
2023-04-08T00:27:05.466Z,99357.03
2023-04-08T00:29:32.368Z,99360.34
2023-04-08T00:31:59.068Z,99352.31
2023-04-08T00:34:25.659Z,99354.56
2023-04-08T00:36:52.386Z,99356.00
2023-04-08T00:39:19.083Z,99352.47
2023-04-08T00:41:45.855Z,99355.75
2023-04-08T00:44:12.539Z,99351.88
2023-04-08T00:46:40.319Z,99359.41
2023-04-08T00:49:07.773Z,99360.94
2023-04-08T00:51:36.606Z,99366.09
2023-04-08T00:54:07.355Z,99353.91
2023-04-08T00:56:34.820Z,99363.75
2023-04-08T00:59:01.916Z,99362.97
2023-04-08T01:01:39.645Z,99354.16
2023-04-08T01:04:40.587Z,99354.22
2023-04-08T01:07:17.444Z,99356.19
2023-04-08T01:09:52.578Z,99351.69
2023-04-08T01:12:27.259Z,99352.47
2023-04-08T01:15:01.742Z,99353.38
2023-04-08T01:17:30.546Z,99353.22
2023-04-08T01:19:59.629Z,99331.78
2023-04-08T01:23:07.351Z,99349.25
2023-04-08T01:25:38.810Z,99359.56
2023-04-08T01:28:15.786Z,99357.72
2023-04-08T01:30:44.971Z,99356.78
2023-04-08T01:33:13.535Z,99349.06
2023-04-08T01:35:41.010Z,99357.72
2023-04-08T01:38:09.972Z,99349.81
2023-04-08T01:40:39.377Z,99354.31
2023-04-08T01:43:07.872Z,99352.66
2023-04-08T01:45:34.558Z,99352.66
2023-04-08T01:48:01.826Z,99355.16
2023-04-08T01:50:29.761Z,99355.94
2023-04-08T01:52:59.196Z,99355.00
2023-04-08T01:55:26.479Z,99359.41
2023-04-08T01:57:54.382Z,99352.47
2023-04-08T02:00:26.055Z,99360.25
2023-04-08T02:02:53.887Z,99347.91
2023-04-08T02:05:21.065Z,99351.34
2023-04-08T02:07:48.839Z,99350.41
2023-04-08T02:10:16.298Z,99351.25
2023-04-08T02:12:44.414Z,99353.47
2023-04-08T02:15:12.412Z,99353.63
2023-04-08T02:17:45.854Z,99358.16
2023-04-08T02:20:24.483Z,99360.00
2023-04-08T02:23:04.713Z,99354.59
2023-04-08T02:25:37.691Z,99354.66
2023-04-08T02:28:06.980Z,99352.88
2023-04-08T02:30:37.352Z,99356.38
2023-04-08T02:33:06.095Z,99355.66
2023-04-08T02:35:33.757Z,99359.41
2023-04-08T02:38:00.642Z,99362.03
2023-04-08T02:40:29.299Z,99363.75
2023-04-08T02:42:56.474Z,99360.25
2023-04-08T02:45:25.800Z,99358.31
2023-04-08T02:47:52.604Z,99362.81
2023-04-08T02:50:19.317Z,99352.13
2023-04-08T02:52:45.967Z,99352.03
2023-04-08T02:55:12.648Z,99355.53
2023-04-08T02:57:41.239Z,99360.78
2023-04-08T03:00:09.303Z,99353.81
2023-04-08T03:02:36.554Z,99354.59
2023-04-08T03:05:04.422Z,99371.09
2023-04-08T03:07:31.683Z,99359.66
2023-04-08T03:09:58.626Z,99362.28
2023-04-08T03:12:27.537Z,99365.69
2023-04-08T03:14:54.719Z,99363.13
2023-04-08T03:17:21.668Z,99370.09
2023-04-08T03:19:48.449Z,99371.88
2023-04-08T03:22:15.556Z,99365.50
2023-04-08T03:24:42.288Z,99370.75
2023-04-08T03:27:09.013Z,99374.84
2023-04-08T03:29:35.606Z,99376.88
2023-04-08T03:32:02.511Z,99373.75
2023-04-08T03:34:29.198Z,99371.84
2023-04-08T03:36:55.815Z,99377.03
2023-04-08T03:39:22.616Z,99373.47
2023-04-08T03:41:49.259Z,99372.47
2023-04-08T03:44:15.945Z,99377.38
2023-04-08T03:46:42.582Z,99383.75
2023-04-08T03:49:09.352Z,99379.06
2023-04-08T03:51:35.982Z,99379.94
2023-04-08T03:54:02.682Z,99388.72
2023-04-08T03:56:29.371Z,99386.19
2023-04-08T03:58:56.024Z,99390.50
2023-04-08T04:01:22.729Z,99393.00
2023-04-08T04:03:49.475Z,99389.25
2023-04-08T04:06:16.360Z,99396.78
2023-04-08T04:08:42.957Z,99398.56
2023-04-08T04:11:09.611Z,99406.38
2023-04-08T04:13:36.319Z,99409.59
2023-04-08T04:16:02.979Z,99409.19
2023-04-08T04:18:29.678Z,99411.81
2023-04-08T04:20:56.482Z,99416.56
2023-04-08T04:23:24.461Z,99406.19
2023-04-08T04:25:51.231Z,99400.19
2023-04-08T04:28:17.905Z,99414.84
2023-04-08T04:30:45.740Z,99414.84
2023-04-08T04:33:12.430Z,99409.44
2023-04-08T04:35:40.055Z,99412.81
2023-04-08T04:38:12.680Z,99417.16
2023-04-08T04:40:39.693Z,99424.88
2023-04-08T04:43:06.498Z,99415.28
2023-04-08T04:45:33.251Z,99421.41
2023-04-08T04:47:59.921Z,99428.59
2023-04-08T04:50:27.444Z,99423.25
2023-04-08T04:52:54.069Z,99419.63
2023-04-08T04:55:22.419Z,99428.25
2023-04-08T04:57:49.754Z,99422.06
2023-04-08T05:00:17.163Z,99421.13
2023-04-08T05:02:44.176Z,99431.66
2023-04-08T05:05:11.137Z,99421.13
2023-04-08T05:07:38.703Z,99429.81
2023-04-08T05:10:06.165Z,99428.25
2023-04-08T05:12:33.200Z,99431.00
2023-04-08T05:14:59.776Z,99429.50
2023-04-08T05:17:26.758Z,99431.06
2023-04-08T05:19:53.703Z,99430.97
2023-04-08T05:22:20.394Z,99434.19
2023-04-08T05:24:47.080Z,99442.50
2023-04-08T05:27:13.714Z,99444.78
2023-04-08T05:29:40.338Z,99445.38
2023-04-08T05:32:07.307Z,99445.22
2023-04-08T05:34:33.975Z,99444.38
2023-04-08T05:37:00.907Z,99446.16
2023-04-08T05:39:27.646Z,99440.13
2023-04-08T05:41:54.289Z,99446.31
2023-04-08T05:44:21.099Z,99448.94
2023-04-08T05:46:47.736Z,99452.69
2023-04-08T05:49:14.505Z,99450.47
2023-04-08T05:51:41.253Z,99453.53
2023-04-08T05:54:07.890Z,99447.16
2023-04-08T05:56:35.056Z,99449.56
2023-04-08T05:59:01.700Z,99458.47
2023-04-08T06:01:28.279Z,99460.41
2023-04-08T06:03:56.586Z,99461.09
2023-04-08T06:06:24.200Z,99464.03
2023-04-08T06:08:51.075Z,99466.94
2023-04-08T06:11:17.948Z,99463.38
2023-04-08T06:13:44.567Z,99459.66
2023-04-08T06:16:21.331Z,99469.25
2023-04-08T06:18:49.189Z,99466.59
2023-04-08T06:21:16.047Z,99480.34
2023-04-08T06:23:42.721Z,99476.78
2023-04-08T06:26:09.362Z,99480.50
2023-04-08T06:28:36.278Z,99475.25
2023-04-08T06:31:03.033Z,99480.34
2023-04-08T06:33:29.713Z,99481.69
2023-04-08T06:36:07.343Z,99484.34
2023-04-08T06:38:34.765Z,99493.41
2023-04-08T06:41:07.972Z,99492.47
2023-04-08T06:43:36.567Z,99488.13
2023-04-08T06:46:03.892Z,99497.72
2023-04-08T06:48:31.009Z,99498.06
2023-04-08T06:50:58.547Z,99495.78
2023-04-08T06:53:25.730Z,99498.50
2023-04-08T06:55:52.709Z,99498.34
2023-04-08T06:58:19.314Z,99514.00
2023-04-08T07:00:46.180Z,99513.19
2023-04-08T07:03:13.170Z,99519.13
2023-04-08T07:05:40.015Z,99514.97
2023-04-08T07:08:06.710Z,99516.84
2023-04-08T07:10:34.993Z,99517.75
2023-04-08T07:13:02.090Z,99520.47
2023-04-08T07:15:28.718Z,99518.19
2023-04-08T07:17:58.854Z,99532.28
2023-04-08T07:20:26.219Z,99528.72
2023-04-08T07:22:52.889Z,99539.41
2023-04-08T07:25:19.761Z,99541.88
2023-04-08T07:27:46.619Z,99547.88
2023-04-08T07:30:13.499Z,99546.94
2023-04-08T07:32:40.254Z,99545.59
2023-04-08T07:35:07.251Z,99554.09
2023-04-08T07:37:33.955Z,99549.78
2023-04-08T07:40:00.891Z,99551.69
2023-04-08T07:42:27.510Z,99559.59
2023-04-08T07:44:54.202Z,99555.88
2023-04-08T07:47:21.253Z,99563.50
2023-04-08T07:49:48.487Z,99563.78
2023-04-08T07:52:15.805Z,99560.09
2023-04-08T07:54:42.496Z,99562.66
2023-04-08T07:57:09.208Z,99566.41
2023-04-08T07:59:36.227Z,99567.75
2023-04-08T08:02:03.541Z,99571.22
2023-04-08T08:04:30.518Z,99576.34
2023-04-08T08:06:57.247Z,99580.75
2023-04-08T08:09:23.941Z,99572.00
2023-04-08T08:11:50.486Z,99573.13
2023-04-08T08:14:17.077Z,99585.06
2023-04-08T08:16:44.615Z,99592.13
2023-04-08T08:19:12.463Z,99583.19
2023-04-08T08:21:42.318Z,99588.06
2023-04-08T08:24:09.431Z,99588.63
2023-04-08T08:26:39.424Z,99575.84
2023-04-08T08:29:08.897Z,99586.09
2023-04-08T08:31:35.815Z,99580.59
2023-04-08T08:34:02.935Z,99568.13
2023-04-08T08:36:29.577Z,99578.72
2023-04-08T08:38:56.500Z,99573.44
2023-04-08T08:41:23.246Z,99588.50
2023-04-08T08:43:50.187Z,99598.34
2023-04-08T08:46:19.374Z,99592.47
2023-04-08T08:48:46.550Z,99593.91
2023-04-08T08:51:14.801Z,99601.34
2023-04-08T08:53:45.684Z,99601.69
2023-04-08T08:58:42.064Z,99611.31
2023-04-08T09:01:30.546Z,99621.28
2023-04-08T09:04:11.165Z,99619.06
2023-04-08T09:06:38.543Z,99622.38
2023-04-08T09:09:11.236Z,99622.19
2023-04-08T09:11:40.875Z,99622.78
2023-04-08T09:14:22.846Z,99619.06
2023-04-08T09:16:50.113Z,99619.44
2023-04-08T09:19:17.018Z,99629.84
2023-04-08T09:21:44.157Z,99635.38
2023-04-08T09:24:29.055Z,99643.19
2023-04-08T09:26:56.622Z,99642.84
2023-04-08T09:29:31.261Z,99641.75
2023-04-08T09:42:53.708Z,99648.56
2023-04-08T09:45:20.862Z,99641.84
2023-04-08T09:48:04.557Z,99646.16
2023-04-08T09:50:39.474Z,99645.59
2023-04-08T09:53:15.683Z,99650.84
2023-04-08T09:55:45.289Z,99654.69
2023-04-08T09:58:19.200Z,99650.50
2023-04-08T10:00:50.767Z,99657.13
2023-04-08T10:03:29.484Z,99652.53
2023-04-08T10:05:58.637Z,99644.13
2023-04-08T10:08:27.148Z,99644.38
2023-04-08T10:10:55.217Z,99639.63
2023-04-08T10:13:22.834Z,99649.97
2023-04-08T10:15:49.550Z,99661.88
2023-04-08T10:18:19.138Z,99660.41
2023-04-08T10:20:47.496Z,99656.75
2023-04-08T10:23:16.198Z,99657.41
2023-04-08T10:25:47.929Z,99648.59
2023-04-08T10:28:15.277Z,99648.41
2023-04-08T10:30:51.473Z,99652.22
2023-04-08T10:33:21.585Z,99644.22
2023-04-08T10:36:11.746Z,99653.50
2023-04-08T10:38:39.612Z,99664.66
2023-04-08T10:41:06.378Z,99661.66
2023-04-08T10:43:37.208Z,99663.66
2023-04-08T10:46:04.985Z,99665.66
2023-04-08T10:48:31.945Z,99672.00
2023-04-08T10:51:00.217Z,99674.97
2023-04-08T10:53:37.759Z,99676.50
2023-04-08T10:56:13.269Z,99668.59
2023-04-08T10:58:57.697Z,99657.47
2023-04-08T11:01:24.440Z,99659.22
2023-04-08T11:03:51.808Z,99655.44
2023-04-08T11:06:19.566Z,99660.25
2023-04-08T11:08:47.289Z,99651.59
2023-04-08T11:11:15.472Z,99655.28
2023-04-08T11:13:52.816Z,99652.06
2023-04-08T11:16:22.542Z,99660.53
2023-04-08T11:18:50.640Z,99664.59
2023-04-08T11:21:17.379Z,99653.88
2023-04-08T11:23:44.149Z,99651.59
2023-04-08T11:26:11.633Z,99653.28
2023-04-08T11:28:38.835Z,99645.59
2023-04-08T11:31:06.321Z,99646.06
2023-04-08T11:33:33.467Z,99648.59
2023-04-08T11:36:02.202Z,99646.16
2023-04-08T11:38:29.412Z,99651.81
2023-04-08T11:40:59.934Z,99644.97
2023-04-08T11:43:27.185Z,99643.72
2023-04-08T11:45:53.773Z,99643.59
2023-04-08T11:48:20.673Z,99642.97
2023-04-08T11:50:47.352Z,99644.06
2023-04-08T11:53:21.709Z,99645.78
2023-04-08T11:55:49.119Z,99641.81
2023-04-08T11:58:15.926Z,99648.25
2023-04-08T12:00:43.732Z,99651.06
2023-04-08T12:03:11.307Z,99653.69
2023-04-08T12:05:38.058Z,99658.97
2023-04-08T12:08:04.825Z,99661.41
2023-04-08T12:10:31.445Z,99656.13
2023-04-08T12:12:58.055Z,99657.81
2023-04-08T12:15:24.678Z,99662.81
2023-04-08T12:17:51.441Z,99662.25
2023-04-08T12:20:18.655Z,99669.63
2023-04-08T12:22:45.575Z,99668.56
2023-04-08T12:25:12.292Z,99673.88
2023-04-08T12:27:38.946Z,99675.75
2023-04-08T12:30:06.016Z,99674.09
2023-04-08T12:32:33.678Z,99668.06
2023-04-08T12:35:00.480Z,99666.50
2023-04-08T12:37:27.706Z,99675.94
2023-04-08T12:39:54.287Z,99671.63
2023-04-08T12:42:20.937Z,99681.44
2023-04-08T12:44:47.511Z,99680.69
2023-04-08T12:47:14.129Z,99669.91
2023-04-08T12:52:10.378Z,99684.50
2023-04-08T12:54:37.037Z,99684.50
2023-04-08T12:57:04.637Z,99682.59
2023-04-08T12:59:32.238Z,99680.53
2023-04-08T13:01:59.237Z,99676.31
2023-04-08T13:04:25.950Z,99677.97
2023-04-08T13:06:52.793Z,99681.38
2023-04-08T13:09:19.378Z,99690.09
2023-04-08T13:11:45.985Z,99691.38
2023-04-08T13:14:13.751Z,99684.88
2023-04-08T13:16:40.551Z,99684.47
2023-04-08T13:19:07.259Z,99686.25
2023-04-08T13:21:33.832Z,99688.31
2023-04-08T13:24:00.528Z,99693.22
2023-04-08T13:26:27.442Z,99694.03
2023-04-08T13:28:57.790Z,99693.56
2023-04-08T13:31:25.464Z,99699.00
2023-04-08T13:33:53.885Z,99690.38
2023-04-08T13:36:21.959Z,99688.50
2023-04-08T13:38:48.755Z,99687.91
2023-04-08T13:41:15.557Z,99685.66
2023-04-08T13:43:42.373Z,99680.56
2023-04-08T13:46:09.356Z,99690.94
2023-04-08T13:48:36.078Z,99680.81
2023-04-08T13:51:03.544Z,99678.72
2023-04-08T13:53:30.278Z,99685.16
2023-04-08T13:55:59.038Z,99678.34
2023-04-08T13:58:26.622Z,99675.06
2023-04-08T14:00:53.536Z,99673.66
2023-04-08T14:03:20.244Z,99676.78
2023-04-08T14:05:48.279Z,99675.06
2023-04-08T14:08:14.864Z,99670.72
2023-04-08T14:10:42.275Z,99677.03
2023-04-08T14:13:09.201Z,99678.25
2023-04-08T14:15:36.237Z,99667.94
2023-04-08T14:18:02.993Z,99667.84
2023-04-08T14:20:30.299Z,99668.03
2023-04-08T14:22:57.030Z,99667.50
2023-04-08T14:25:24.378Z,99669.44
2023-04-08T14:27:58.465Z,99668.19
2023-04-08T14:30:27.202Z,99663.66
2023-04-08T14:32:54.605Z,99663.97
2023-04-08T14:35:21.672Z,99664.44
2023-04-08T14:37:48.467Z,99665.63
2023-04-08T14:40:15.072Z,99661.72
2023-04-08T14:42:42.010Z,99670.28
2023-04-08T14:45:09.149Z,99667.47
2023-04-08T14:47:36.009Z,99670.13
2023-04-08T14:50:02.747Z,99678.78
2023-04-08T14:52:29.362Z,99667.47
2023-04-08T14:54:56.018Z,99673.78
2023-04-08T14:57:22.622Z,99675.69
2023-04-08T14:59:49.225Z,99673.78
2023-04-08T15:02:15.992Z,99675.84
2023-04-08T15:04:42.722Z,99685.31
2023-04-08T15:07:09.347Z,99685.22
2023-04-08T15:09:36.174Z,99686.25
2023-04-08T15:12:03.140Z,99687.34
2023-04-08T15:14:29.821Z,99690.19
2023-04-08T15:16:56.414Z,99689.03
2023-04-08T15:19:23.745Z,99691.97
2023-04-08T15:21:50.357Z,99694.94
2023-04-08T15:24:17.083Z,99701.94
2023-04-08T15:26:43.733Z,99700.63
2023-04-08T15:29:10.385Z,99703.38
2023-04-08T15:31:37.340Z,99701.03
2023-04-08T15:34:04.028Z,99711.03
2023-04-08T15:36:30.978Z,99708.88
2023-04-08T15:38:57.686Z,99705.28
2023-04-08T15:41:24.383Z,99709.81
2023-04-08T15:43:53.210Z,99705.31
2023-04-08T15:46:23.505Z,99714.41
2023-04-08T15:48:50.725Z,99712.69
2023-04-08T15:51:18.037Z,99713.06
2023-04-08T15:53:44.771Z,99712.94
2023-04-08T15:56:16.320Z,99711.06
2023-04-08T15:58:43.730Z,99719.09
2023-04-08T16:01:10.577Z,99717.41
2023-04-08T16:03:37.400Z,99715.31
2023-04-08T16:06:06.106Z,99709.81
2023-04-08T16:08:34.854Z,99708.31
2023-04-08T16:11:03.217Z,99707.16
2023-04-08T16:13:30.183Z,99710.88
2023-04-08T16:16:05.926Z,99715.72
2023-04-08T16:18:32.613Z,99715.31
2023-04-08T16:20:59.364Z,99720.25
2023-04-08T16:23:26.190Z,99718.63
2023-04-08T16:25:52.815Z,99723.28
2023-04-08T16:28:19.637Z,99719.69
2023-04-08T16:30:47.889Z,99722.13
2023-04-08T16:33:14.620Z,99716.97
2023-04-08T16:35:41.250Z,99726.28
2023-04-08T16:38:07.905Z,99730.06
2023-04-08T16:40:34.830Z,99734.59
2023-04-08T16:43:02.394Z,99731.19
2023-04-08T16:45:30.320Z,99733.09
2023-04-08T16:47:57.789Z,99735.06
2023-04-08T16:50:24.725Z,99743.47
2023-04-08T16:52:51.731Z,99740.84
2023-04-08T16:55:19.497Z,99736.75
2023-04-08T16:57:46.367Z,99745.38
2023-04-08T17:00:13.521Z,99746.41
2023-04-08T17:02:40.433Z,99737.88
2023-04-08T17:05:07.764Z,99743.84
2023-04-08T17:07:34.615Z,99747.22
2023-04-08T17:10:01.235Z,99743.84
2023-04-08T17:12:27.820Z,99745.34
2023-04-08T17:14:54.519Z,99756.56
2023-04-08T17:17:21.220Z,99749.56
2023-04-08T17:19:48.047Z,99759.50
2023-04-08T17:22:14.655Z,99765.72
2023-04-08T17:24:41.326Z,99771.78
2023-04-08T17:27:07.939Z,99769.69
2023-04-08T17:29:34.547Z,99771.31
2023-04-08T17:32:01.461Z,99761.69
2023-04-08T17:34:29.231Z,99770.09
2023-04-08T17:36:56.902Z,99772.72
2023-04-08T17:39:23.527Z,99779.72
2023-04-08T17:41:50.114Z,99763.88
2023-04-08T17:44:17.173Z,99771.03
2023-04-08T17:46:43.797Z,99771.78
2023-04-08T17:49:14.259Z,99786.06
2023-04-08T17:51:41.034Z,99778.28
2023-04-08T17:54:07.724Z,99782.81
2023-04-08T17:56:34.347Z,99783.66
2023-04-08T17:59:01.904Z,99785.56
2023-04-08T18:01:28.642Z,99780.84
2023-04-08T18:03:56.212Z,99783.56
2023-04-08T18:06:23.024Z,99783.09
2023-04-08T18:08:50.008Z,99787.66
2023-04-08T18:11:16.635Z,99793.09
2023-04-08T18:13:43.294Z,99791.31
2023-04-08T18:16:17.426Z,99795.09
2023-04-08T18:18:44.730Z,99791.53
2023-04-08T18:21:11.333Z,99796.13
2023-04-08T18:23:38.104Z,99803.28
2023-04-08T18:26:04.724Z,99796.31
2023-04-08T18:28:31.609Z,99803.28
2023-04-08T18:30:58.353Z,99807.91
2023-04-08T18:33:25.279Z,99805.00
2023-04-08T18:35:52.706Z,99808.66
2023-04-08T18:38:19.581Z,99819.13
2023-04-08T18:40:46.894Z,99820.25
2023-04-08T18:43:13.848Z,99824.00
2023-04-08T18:45:41.338Z,99816.19
2023-04-08T18:48:08.486Z,99823.72
2023-04-08T18:50:35.326Z,99821.16
2023-04-08T18:55:30.358Z,99825.31
2023-04-08T18:57:57.242Z,99829.94
2023-04-08T19:00:24.076Z,99823.03
2023-04-08T19:02:51.056Z,99826.03
2023-04-08T19:05:17.961Z,99826.81
2023-04-08T19:07:44.566Z,99838.31
2023-04-08T19:10:11.323Z,99830.56
2023-04-08T19:12:37.892Z,99836.03
2023-04-08T19:15:04.935Z,99832.72
2023-04-08T19:17:31.595Z,99838.00
2023-04-08T19:19:58.840Z,99841.47
2023-04-08T19:22:25.456Z,99839.28
2023-04-08T19:24:54.384Z,99835.44
2023-04-08T19:27:21.722Z,99836.47
2023-04-08T19:29:48.349Z,99843.38
2023-04-08T19:32:15.411Z,99839.94
2023-04-08T19:34:42.522Z,99839.78
2023-04-08T19:37:09.354Z,99843.38
2023-04-08T19:39:36.021Z,99836.31
2023-04-08T19:42:02.652Z,99844.22
2023-04-08T19:44:29.927Z,99841.66
2023-04-08T19:46:57.814Z,99844.31
2023-04-08T19:49:24.931Z,99852.22
2023-04-08T19:51:51.925Z,99850.50
2023-04-08T19:54:18.540Z,99856.16
2023-04-08T19:56:45.664Z,99851.72
2023-04-08T19:59:12.432Z,99857.09
2023-04-08T20:01:40.056Z,99856.16
2023-04-08T20:04:07.142Z,99854.28
2023-04-08T20:06:34.835Z,99858.72
2023-04-08T20:09:05.684Z,99859.56
2023-04-08T20:11:33.825Z,99858.50
2023-04-08T20:14:00.686Z,99862.09
2023-04-08T20:16:27.995Z,99860.41
2023-04-08T20:18:54.676Z,99863.28
2023-04-08T20:21:21.714Z,99869.63
2023-04-08T20:23:48.319Z,99866.41
2023-04-08T20:26:15.706Z,99863.63
2023-04-08T20:28:43.612Z,99861.78
2023-04-08T20:31:10.599Z,99866.19
2023-04-08T20:33:43.758Z,99870.63
2023-04-08T20:36:12.484Z,99867.91
2023-04-08T20:38:40.570Z,99868.69
2023-04-08T20:41:07.219Z,99868.75
2023-04-08T20:43:33.991Z,99861.78
2023-04-08T20:46:01.144Z,99867.06
2023-04-08T20:48:29.411Z,99865.28
2023-04-08T20:50:56.339Z,99865.34
2023-04-08T20:53:23.762Z,99861.97
2023-04-08T20:55:50.444Z,99857.50
2023-04-08T20:58:18.293Z,99867.25
2023-04-08T21:00:47.508Z,99868.91
2023-04-08T21:03:14.609Z,99872.84
2023-04-08T21:05:41.942Z,99860.63
2023-04-08T21:08:08.985Z,99865.69
2023-04-08T21:10:35.862Z,99869.88
2023-04-08T21:13:02.488Z,99865.69
2023-04-08T21:15:29.299Z,99864.91
2023-04-08T21:17:56.153Z,99864.91
2023-04-08T21:20:23.104Z,99865.69
2023-04-08T21:22:49.726Z,99870.31
2023-04-08T21:25:18.037Z,99866.25
2023-04-08T21:27:44.767Z,99878.06
2023-04-08T21:30:11.889Z,99873.88
2023-04-08T21:32:38.879Z,99873.88
2023-04-08T21:35:05.761Z,99877.47
2023-04-08T21:37:32.448Z,99875.06
2023-04-08T21:39:59.052Z,99876.63
2023-04-08T21:42:26.381Z,99864.88
2023-04-08T21:44:53.181Z,99863.94
2023-04-08T21:47:19.812Z,99872.59
2023-04-08T21:49:46.498Z,99872.88
2023-04-08T21:52:13.093Z,99876.63
2023-04-08T21:54:39.681Z,99870.84
2023-04-08T21:57:06.381Z,99868.09
2023-04-08T21:59:32.976Z,99871.78
2023-04-08T22:01:59.864Z,99865.56
2023-04-08T22:04:27.670Z,99872.53
2023-04-08T22:06:54.670Z,99870.72
2023-04-08T22:09:21.729Z,99872.88
2023-04-08T22:11:48.354Z,99868.53
2023-04-08T22:14:15.682Z,99870.31
2023-04-08T22:16:43.109Z,99870.47
2023-04-08T22:19:09.896Z,99870.31
2023-04-08T22:21:36.734Z,99875.09
2023-04-08T22:24:03.578Z,99872.59
2023-04-08T22:26:30.563Z,99873.31
2023-04-08T22:28:57.213Z,99873.38
2023-04-08T22:31:24.013Z,99870.75
2023-04-08T22:33:50.757Z,99869.03
2023-04-08T22:36:17.386Z,99868.25
2023-04-08T22:38:44.035Z,99870.22
2023-04-08T22:41:21.002Z,99870.16
2023-04-08T22:43:48.272Z,99876.28
2023-04-08T22:46:15.172Z,99877.34
2023-04-08T22:48:41.957Z,99867.66
2023-04-08T22:51:09.439Z,99870.31
2023-04-08T22:53:36.864Z,99865.72
2023-04-08T22:56:04.365Z,99868.44
2023-04-08T22:58:31.202Z,99867.50
2023-04-08T23:00:58.364Z,99872.59
2023-04-08T23:03:25.042Z,99867.91
2023-04-08T23:05:52.023Z,99873.19
2023-04-08T23:08:18.697Z,99869.81
2023-04-08T23:10:45.391Z,99872.38
2023-04-08T23:13:14.063Z,99876.59
2023-04-08T23:15:40.865Z,99869.28
2023-04-08T23:18:07.541Z,99871.00
2023-04-08T23:20:35.531Z,99868.44
2023-04-08T23:23:03.441Z,99864.00
2023-04-08T23:25:30.301Z,99869.13
2023-04-08T23:27:56.912Z,99866.66
2023-04-08T23:30:23.508Z,99859.69
2023-04-08T23:32:50.394Z,99864.19
2023-04-08T23:35:17.358Z,99858.75
2023-04-08T23:37:43.963Z,99857.06
2023-04-08T23:40:11.145Z,99858.94
2023-04-08T23:42:37.824Z,99858.94
2023-04-08T23:45:05.656Z,99858.16
2023-04-08T23:47:32.318Z,99855.50
2023-04-08T23:49:58.963Z,99855.34
2023-04-08T23:52:26.009Z,99867.75
2023-04-08T23:54:52.660Z,99869.72
2023-04-08T23:57:22.326Z,99860.28
2023-04-08T23:59:48.927Z,99865.47
